Time;durP1;ratioP1;P1;durP2;ratioP2;P2;SDS_P1;SDS_P2;PMS_P1;PMS_P2;Temp;Humidity;BMP_temperature;BMP_pressure;BME280_temperature;BME280_humidity;BME280_pressure;Samples;Min_cycle;Max_cycle;Signal;HPM_P1;HPM_P2
2022/08/31 00:04:07;;;;;;;3.10;1.53;;;22.90;59.70;;;;;;4936803;29;20586;-75
2022/08/31 00:06:35;;;;;;;3.13;1.97;;;22.70;60.90;;;;;;4936015;29;20628;-75
2022/08/31 00:09:05;;;;;;;3.90;2.17;;;22.40;62.80;;;;;;4953326;28;20703;-76
2022/08/31 00:11:34;;;;;;;4.40;1.70;;;22.20;64.90;;;;;;4953191;29;21003;-76
2022/08/31 00:14:07;;;;;;;3.27;1.80;;;22.00;66.60;;;;;;4953792;29;20618;-76
2022/08/31 00:16:36;;;;;;;2.07;1.60;;;21.80;70.80;;;;;;4953684;29;20563;-75
2022/08/31 00:19:02;;;;;;;3.80;2.23;;;21.70;71.80;;;;;;4936300;29;21078;-75
2022/08/31 00:21:28;;;;;;;3.07;1.90;;;21.50;73.80;;;;;;4953330;29;20587;-75
2022/08/31 00:23:54;;;;;;;3.27;2.27;;;21.40;76.60;;;;;;4936374;29;20560;-75
2022/08/31 00:26:21;;;;;;;3.27;2.90;;;21.30;79.10;;;;;;4953642;29;20196;-76
2022/08/31 00:28:47;;;;;;;2.87;2.40;;;21.20;81.20;;;;;;4953051;28;20651;-77
2022/08/31 00:31:14;;;;;;;3.17;2.30;;;21.10;83.70;;;;;;4952150;29;20580;-77
2022/08/31 00:33:40;;;;;;;2.70;2.13;;;21.00;86.20;;;;;;4952121;29;20934;-77
2022/08/31 00:36:09;;;;;;;2.90;2.23;;;21.00;88.50;;;;;;4936944;29;20975;-77
2022/08/31 00:38:35;;;;;;;3.60;1.83;;;20.90;90.20;;;;;;4935726;29;20624;-76
2022/08/31 00:41:01;;;;;;;3.27;1.90;;;20.90;90.70;;;;;;4953089;29;20579;-76
2022/08/31 00:43:46;;;;;;;3.57;2.43;;;20.80;91.10;;;;;;4952436;29;20614;-76
2022/08/31 00:46:25;;;;;;;2.60;2.10;;;20.70;92.20;;;;;;4952301;29;20991;-75
2022/08/31 00:49:03;;;;;;;3.40;2.10;;;20.70;92.30;;;;;;4935727;29;20614;-76
2022/08/31 00:51:31;;;;;;;6.00;2.73;;;20.70;93.40;;;;;;4931750;29;20593;-76
2022/08/31 00:53:58;;;;;;;3.60;2.43;;;20.60;93.10;;;;;;4950591;29;20588;-76
2022/08/31 00:56:25;;;;;;;5.50;2.40;;;20.60;93.60;;;;;;4955351;28;20602;-76
2022/08/31 00:58:53;;;;;;;3.27;2.90;;;20.60;94.10;;;;;;4956371;28;20731;-76
2022/08/31 01:01:19;;;;;;;3.17;2.17;;;20.60;94.60;;;;;;4956587;28;20924;-76
2022/08/31 01:03:46;;;;;;;3.23;2.57;;;20.50;95.00;;;;;;4956827;29;20630;-76
2022/08/31 01:06:13;;;;;;;4.03;3.10;;;20.50;95.60;;;;;;4939239;29;20639;-76
2022/08/31 01:08:40;;;;;;;3.73;2.57;;;20.40;95.90;;;;;;4956746;28;20775;-76
2022/08/31 01:11:07;;;;;;;3.10;2.80;;;20.40;96.20;;;;;;4939090;29;20657;-76
2022/08/31 01:13:32;;;;;;;3.37;2.63;;;20.30;98.10;;;;;;4957331;29;20575;-76
2022/08/31 01:16:04;;;;;;;3.57;2.60;;;20.20;97.70;;;;;;4957042;29;20624;-76
2022/08/31 01:18:31;;;;;;;4.30;2.90;;;20.20;98.20;;;;;;4939529;29;20678;-75
2022/08/31 01:21:23;;;;;;;4.30;2.20;;;20.10;98.30;;;;;;4939473;29;20572;-76
2022/08/31 01:23:50;;;;;;;3.03;2.20;;;20.10;98.90;;;;;;4939367;29;20572;-76
2022/08/31 01:26:22;;;;;;;3.30;2.57;;;20.10;99.00;;;;;;4939758;29;20572;-76
2022/08/31 01:28:50;;;;;;;3.10;2.80;;;20.00;99.90;;;;;;4956585;28;20976;-76
2022/08/31 01:31:23;;;;;;;5.07;3.00;;;20.00;99.90;;;;;;4939167;29;20613;-76
2022/08/31 01:33:49;;;;;;;4.07;2.47;;;20.00;99.90;;;;;;4939525;29;20574;-76
2022/08/31 01:36:15;;;;;;;4.43;2.03;;;20.00;99.90;;;;;;4956502;29;20623;-76
2022/08/31 01:38:42;;;;;;;2.77;2.30;;;20.00;99.90;;;;;;4939325;29;20612;-76
2022/08/31 01:41:08;;;;;;;3.73;2.83;;;20.00;99.90;;;;;;4956099;29;20575;-76
2022/08/31 01:43:34;;;;;;;3.17;2.50;;;20.00;99.90;;;;;;4939333;29;20612;-75
2022/08/31 01:46:07;;;;;;;3.27;2.53;;;20.00;99.90;;;;;;4939366;29;20574;-75
2022/08/31 01:48:35;;;;;;;4.13;2.50;;;20.00;99.90;;;;;;4956365;28;20603;-75
2022/08/31 01:51:02;;;;;;;2.90;2.40;;;20.00;99.90;;;;;;4955960;29;20596;-76
2022/08/31 01:53:28;;;;;;;3.30;2.50;;;20.00;99.90;;;;;;4923098;29;20580;-76
2022/08/31 01:55:57;;;;;;;4.93;1.87;;;20.00;99.90;;;;;;4939124;29;20718;-77
2022/08/31 01:58:24;;;;;;;4.80;2.50;;;20.00;99.90;;;;;;4954979;28;20632;-76
2022/08/31 02:01:09;;;;;;;4.00;3.00;;;20.00;99.90;;;;;;4925144;29;20695;-76
2022/08/31 02:03:35;;;;;;;3.13;2.60;;;20.00;99.90;;;;;;4923296;29;20567;-76
2022/08/31 02:06:12;;;;;;;2.87;2.47;;;20.00;99.90;;;;;;4955992;29;20635;-76
2022/08/31 02:08:39;;;;;;;3.20;2.10;;;20.00;99.90;;;;;;4937715;29;20220;-76
2022/08/31 02:11:06;;;;;;;3.40;2.27;;;20.00;99.90;;;;;;4938470;29;21277;-76
2022/08/31 02:13:33;;;;;;;2.50;2.30;;;20.00;99.90;;;;;;4938687;29;20572;-76
2022/08/31 02:15:59;;;;;;;2.70;2.07;;;20.00;99.90;;;;;;4938661;29;20623;-76
2022/08/31 02:18:26;;;;;;;2.43;2.23;;;20.00;99.90;;;;;;4938445;29;20623;-75
2022/08/31 02:20:53;;;;;;;3.27;2.93;;;20.00;99.90;;;;;;4938393;29;20555;-76
2022/08/31 02:23:19;;;;;;;3.40;2.20;;;20.00;99.90;;;;;;4938321;29;20661;-76
2022/08/31 02:25:45;;;;;;;3.30;2.30;;;20.00;99.90;;;;;;4960415;29;20568;-76
2022/08/31 02:28:12;;;;;;;3.70;2.87;;;20.00;99.90;;;;;;4938470;28;20624;-76
2022/08/31 02:30:41;;;;;;;9.23;2.27;;;20.00;99.90;;;;;;4938194;29;20576;-76
2022/08/31 02:33:08;;;;;;;2.97;2.53;;;20.00;99.90;;;;;;4938208;29;20584;-76
2022/08/31 02:35:37;;;;;;;3.27;2.67;;;20.00;99.90;;;;;;4937994;29;20694;-76
2022/08/31 02:38:05;;;;;;;3.20;2.43;;;19.90;99.90;;;;;;4938313;28;20575;-76
2022/08/31 02:40:32;;;;;;;4.13;2.87;;;19.90;99.90;;;;;;4937801;29;20750;-76
2022/08/31 02:42:58;;;;;;;3.80;2.57;;;19.90;99.90;;;;;;4955369;29;20922;-76
2022/08/31 02:45:26;;;;;;;2.80;2.37;;;19.90;99.90;;;;;;4954259;29;20579;-76
2022/08/31 02:47:56;;;;;;;3.10;2.80;;;19.90;99.90;;;;;;4938188;28;20583;-76
2022/08/31 02:50:27;;;;;;;3.60;2.90;;;19.80;99.90;;;;;;4937882;29;20639;-76
2022/08/31 02:52:55;;;;;;;2.50;2.30;;;19.90;99.90;;;;;;4955175;29;20580;-76
2022/08/31 02:55:22;;;;;;;5.90;5.33;;;19.90;99.90;;;;;;4937863;29;20627;-76
2022/08/31 02:57:49;;;;;;;3.60;2.43;;;19.90;99.90;;;;;;4955080;29;20590;-76
2022/08/31 03:00:19;;;;;;;4.10;3.47;;;19.90;99.90;;;;;;4921730;29;20564;-76
2022/08/31 03:02:44;;;;;;;3.60;2.73;;;19.90;99.90;;;;;;4942381;29;20569;-76
2022/08/31 03:05:11;;;;;;;3.40;3.03;;;19.80;99.90;;;;;;4954933;29;20571;-76
2022/08/31 03:07:38;;;;;;;3.30;3.00;;;19.80;99.90;;;;;;4937737;29;20219;-76
2022/08/31 03:10:06;;;;;;;2.90;2.50;;;19.80;99.90;;;;;;4954587;28;20604;-76
2022/08/31 03:12:33;;;;;;;3.60;2.80;;;19.90;99.90;;;;;;4937508;29;20565;-77
2022/08/31 03:14:59;;;;;;;4.30;3.70;;;19.80;99.90;;;;;;4937422;29;20556;-76
2022/08/31 03:17:25;;;;;;;3.93;3.27;;;19.90;99.90;;;;;;4937517;29;21149;-76
2022/08/31 03:20:01;;;;;;;6.40;2.73;;;19.80;99.90;;;;;;4952337;28;20636;-76
2022/08/31 03:22:27;;;;;;;3.90;2.90;;;19.80;99.90;;;;;;4936864;29;20199;-76
2022/08/31 03:24:53;;;;;;;3.53;3.23;;;19.90;99.90;;;;;;4937287;29;20627;-76
2022/08/31 03:27:20;;;;;;;5.30;3.67;;;19.90;99.90;;;;;;4937430;29;20931;-76
2022/08/31 03:29:45;;;;;;;3.23;2.90;;;19.80;99.90;;;;;;4954227;28;21256;-76
2022/08/31 03:32:18;;;;;;;3.83;2.97;;;19.80;99.90;;;;;;4953226;29;20580;-76
2022/08/31 03:34:55;;;;;;;3.77;3.47;;;19.80;99.90;;;;;;4921762;29;21113;-76
2022/08/31 03:37:21;;;;;;;3.40;2.93;;;19.80;99.90;;;;;;4954558;29;20963;-76
2022/08/31 03:39:48;;;;;;;3.90;3.00;;;19.80;99.90;;;;;;4941921;29;20736;-76
2022/08/31 03:42:14;;;;;;;5.93;4.37;;;19.80;99.90;;;;;;4936937;29;20609;-76
2022/08/31 03:44:40;;;;;;;5.20;3.50;;;19.80;99.90;;;;;;4954189;29;20596;-76
2022/08/31 03:47:12;;;;;;;3.80;3.20;;;19.80;99.90;;;;;;4936747;29;20584;-76
2022/08/31 03:49:38;;;;;;;3.73;3.27;;;19.80;99.90;;;;;;4936678;29;20600;-76
2022/08/31 03:52:17;;;;;;;3.33;2.63;;;19.80;99.90;;;;;;4936953;29;20576;-76
2022/08/31 03:54:48;;;;;;;4.23;3.57;;;19.80;99.90;;;;;;4936993;29;20599;-76
2022/08/31 03:57:14;;;;;;;5.30;3.13;;;19.80;99.90;;;;;;4936266;29;20604;-76
2022/08/31 03:59:41;;;;;;;4.93;3.43;;;19.80;99.90;;;;;;4936517;29;20747;-76
2022/08/31 04:02:19;;;;;;;3.50;2.97;;;19.80;99.90;;;;;;4953919;28;20575;-76
2022/08/31 04:05:08;;;;;;;4.70;3.20;;;19.80;99.90;;;;;;4918439;29;20628;-77
2022/08/31 04:07:53;;;;;;;4.03;3.73;;;19.80;99.90;;;;;;4953748;29;20583;-77
2022/08/31 04:10:41;;;;;;;4.60;4.17;;;19.80;99.90;;;;;;4942514;28;21133;-76
2022/08/31 04:13:25;;;;;;;6.13;3.40;;;19.80;99.90;;;;;;4953545;28;20639;-77
2022/08/31 04:16:17;;;;;;;4.50;3.37;;;19.80;99.90;;;;;;4958214;28;21034;-77
2022/08/31 04:18:49;;;;;;;4.27;3.87;;;19.80;99.90;;;;;;4952411;28;20655;-76
2022/08/31 04:21:24;;;;;;;5.17;4.50;;;19.80;99.90;;;;;;4920257;29;20603;-77
2022/08/31 04:23:51;;;;;;;5.10;4.60;;;19.80;99.90;;;;;;4935934;29;21117;-77
2022/08/31 04:26:25;;;;;;;8.90;3.83;;;19.80;99.90;;;;;;4965567;23;20672;-75
2022/08/31 04:28:52;;;;;;;4.13;3.73;;;19.80;99.90;;;;;;4939598;29;20612;-76
2022/08/31 04:31:19;;;;;;;3.93;3.40;;;19.80;99.90;;;;;;4943631;28;20663;-75
2022/08/31 04:33:46;;;;;;;4.70;3.87;;;19.80;99.90;;;;;;4928398;28;20604;-75
2022/08/31 04:36:17;;;;;;;4.00;3.30;;;19.80;99.90;;;;;;4943779;29;21060;-75
2022/08/31 04:38:45;;;;;;;4.83;4.43;;;19.80;99.90;;;;;;4920186;29;20689;-76
2022/08/31 04:41:12;;;;;;;4.67;4.17;;;19.80;99.90;;;;;;4935601;29;20588;-75
2022/08/31 04:43:42;;;;;;;4.80;3.80;;;19.80;99.90;;;;;;4936211;29;20683;-75
2022/08/31 04:46:08;;;;;;;5.07;3.73;;;19.80;99.90;;;;;;4920369;29;20683;-75
2022/08/31 04:48:34;;;;;;;4.10;3.63;;;19.80;99.90;;;;;;4920210;29;20973;-76
2022/08/31 04:51:04;;;;;;;5.50;4.23;;;19.80;99.90;;;;;;4935807;29;20187;-75
2022/08/31 04:53:30;;;;;;;3.50;3.20;;;19.80;99.90;;;;;;4952051;29;20583;-75
2022/08/31 04:55:57;;;;;;;4.03;3.63;;;19.70;99.90;;;;;;4935982;29;20686;-75
2022/08/31 04:58:23;;;;;;;5.33;4.73;;;19.70;99.90;;;;;;4920051;29;20584;-75
2022/08/31 05:00:51;;;;;;;5.57;4.13;;;19.70;99.90;;;;;;4935685;29;20568;-76
2022/08/31 05:03:36;;;;;;;4.10;3.47;;;19.70;99.90;;;;;;4953207;29;20975;-75
2022/08/31 05:06:02;;;;;;;4.57;3.80;;;19.70;99.90;;;;;;4920266;29;20969;-75
2022/08/31 05:08:29;;;;;;;6.20;4.50;;;19.70;99.90;;;;;;4936019;29;20584;-75
2022/08/31 05:10:55;;;;;;;5.70;3.73;;;19.70;99.90;;;;;;4951409;29;20654;-75
2022/08/31 05:13:22;;;;;;;4.20;3.60;;;19.70;99.90;;;;;;4936202;29;20707;-75
2022/08/31 05:15:47;;;;;;;5.20;4.00;;;19.70;99.90;;;;;;4930928;29;20654;-75
2022/08/31 05:18:17;;;;;;;6.57;4.50;;;19.70;99.90;;;;;;4935922;29;20963;-74
2022/08/31 05:20:51;;;;;;;3.77;3.47;;;19.70;99.90;;;;;;4951575;29;20801;-74
2022/08/31 05:23:17;;;;;;;4.43;4.03;;;19.70;99.90;;;;;;4951739;29;20671;-74
2022/08/31 05:25:43;;;;;;;4.60;4.20;;;19.70;99.90;;;;;;4919877;29;20723;-74
2022/08/31 05:28:09;;;;;;;5.10;4.23;;;19.70;99.90;;;;;;4935809;29;20595;-74
2022/08/31 05:30:35;;;;;;;7.47;4.30;;;19.70;99.90;;;;;;4935559;29;20703;-74
2022/08/31 05:33:06;;;;;;;5.40;3.93;;;19.70;99.90;;;;;;4935578;29;20595;-74
2022/08/31 05:35:33;;;;;;;4.07;3.60;;;19.70;99.90;;;;;;4935310;29;20655;-74
2022/08/31 05:37:59;;;;;;;4.57;4.17;;;19.80;99.90;;;;;;4952637;29;20728;-75
2022/08/31 05:40:26;;;;;;;5.43;4.83;;;19.80;99.90;;;;;;4939245;29;21224;-74
2022/08/31 05:42:52;;;;;;;5.67;4.53;;;19.80;99.90;;;;;;4930190;29;20693;-74
2022/08/31 05:45:18;;;;;;;4.53;4.10;;;19.90;99.90;;;;;;4959998;28;20644;-75
2022/08/31 05:47:46;;;;;;;5.33;3.70;;;19.90;99.90;;;;;;4922628;29;21199;-75
2022/08/31 05:50:12;;;;;;;6.70;4.00;;;20.00;99.90;;;;;;4951113;28;20703;-75
2022/08/31 05:52:40;;;;;;;4.90;3.70;;;20.00;99.90;;;;;;4911495;29;20958;-74
2022/08/31 05:55:07;;;;;;;5.23;4.30;;;20.10;99.90;;;;;;4935794;29;20624;-74
2022/08/31 05:57:32;;;;;;;5.27;3.83;;;20.20;99.90;;;;;;4918011;29;20263;-74
2022/08/31 05:59:58;;;;;;;4.43;4.03;;;20.30;99.90;;;;;;4930483;28;20699;-75
2022/08/31 06:02:25;;;;;;;4.13;3.70;;;20.40;99.90;;;;;;4946836;29;20638;-74
2022/08/31 06:04:55;;;;;;;7.30;4.60;;;20.50;99.90;;;;;;4955184;28;20646;-75
2022/08/31 06:07:22;;;;;;;4.40;3.67;;;20.60;99.90;;;;;;4940154;29;20592;-75
2022/08/31 06:09:54;;;;;;;6.47;4.70;;;20.70;99.90;;;;;;4920395;29;20701;-75
2022/08/31 06:12:24;;;;;;;4.40;3.80;;;20.90;99.90;;;;;;4935560;29;20576;-75
2022/08/31 06:14:50;;;;;;;4.40;4.00;;;21.00;99.90;;;;;;4919737;29;21038;-75
2022/08/31 06:17:16;;;;;;;3.93;3.63;;;21.10;99.90;;;;;;4904061;29;20581;-75
2022/08/31 06:19:42;;;;;;;4.80;4.40;;;21.20;99.90;;;;;;4903845;29;20983;-75
2022/08/31 06:22:08;;;;;;;4.53;3.30;;;21.30;99.90;;;;;;4919566;29;21093;-75
2022/08/31 06:24:35;;;;;;;4.63;3.83;;;21.40;99.90;;;;;;4935217;29;20577;-74
2022/08/31 06:27:02;;;;;;;5.50;4.00;;;21.50;99.90;;;;;;4919650;29;20692;-75
2022/08/31 06:29:32;;;;;;;5.23;4.73;;;21.60;99.90;;;;;;4919165;29;20600;-74
2022/08/31 06:32:04;;;;;;;5.20;4.03;;;21.70;99.90;;;;;;4934709;29;20596;-74
2022/08/31 06:34:31;;;;;;;4.50;3.40;;;21.80;99.90;;;;;;4954216;29;20592;-74
2022/08/31 06:37:04;;;;;;;4.53;4.03;;;21.90;99.90;;;;;;4955379;29;20708;-74
2022/08/31 06:39:52;;;;;;;3.27;2.97;;;22.00;99.90;;;;;;4955407;29;20580;-74
2022/08/31 06:42:30;;;;;;;3.67;3.37;;;22.00;99.90;;;;;;4955263;29;20591;-75
2022/08/31 06:45:06;;;;;;;4.77;3.53;;;22.10;99.90;;;;;;4938144;29;20644;-74
2022/08/31 06:47:57;;;;;;;5.43;3.20;;;22.10;99.90;;;;;;4935168;29;20604;-75
2022/08/31 06:50:25;;;;;;;4.07;3.30;;;22.10;99.90;;;;;;4953857;29;20626;-75
2022/08/31 06:52:54;;;;;;;4.80;3.53;;;22.10;99.90;;;;;;4937437;28;20683;-74
2022/08/31 06:55:29;;;;;;;4.50;3.53;;;22.10;99.90;;;;;;4955055;29;21041;-75
2022/08/31 06:58:14;;;;;;;5.20;3.60;;;22.10;99.90;;;;;;4954632;29;20606;-73
2022/08/31 07:01:10;;;;;;;4.37;3.20;;;22.10;99.90;;;;;;4954604;29;20572;-75
2022/08/31 07:04:07;;;;;;;4.80;4.23;;;22.10;99.90;;;;;;4935194;29;21108;-74
2022/08/31 07:06:37;;;;;;;6.40;4.20;;;22.10;99.90;;;;;;4937828;29;20662;-74
2022/08/31 07:09:05;;;;;;;4.80;4.07;;;22.10;99.90;;;;;;4922068;29;20580;-74
2022/08/31 07:11:36;;;;;;;7.20;4.30;;;22.00;99.90;;;;;;4953146;29;20576;-73
2022/08/31 07:14:04;;;;;;;4.57;3.77;;;22.00;99.90;;;;;;4936317;29;20600;-74
2022/08/31 07:16:31;;;;;;;4.83;4.30;;;22.00;99.90;;;;;;4937166;29;20643;-75
2022/08/31 07:19:02;;;;;;;4.30;3.40;;;22.00;99.90;;;;;;4954697;29;20587;-75
2022/08/31 07:21:48;;;;;;;5.20;3.33;;;21.90;99.90;;;;;;4953066;29;20584;-75
2022/08/31 07:24:17;;;;;;;5.10;4.00;;;21.90;99.90;;;;;;4937297;29;20615;-76
2022/08/31 07:26:47;;;;;;;4.93;4.00;;;21.90;99.90;;;;;;4937290;29;20722;-75
2022/08/31 07:29:20;;;;;;;5.70;2.87;;;21.80;99.90;;;;;;4936980;29;20596;-74
2022/08/31 07:31:47;;;;;;;4.30;3.73;;;21.90;99.90;;;;;;4955051;29;20699;-76
2022/08/31 07:34:18;;;;;;;5.73;4.00;;;22.00;99.90;;;;;;4939062;29;20663;-76
2022/08/31 07:42:38;;;;;;;4.20;3.50;;;22.40;99.90;;;;;;4942861;28;21039;-75
2022/08/31 07:45:10;;;;;;;6.03;4.20;;;22.50;99.90;;;;;;4950658;28;20995;-75
2022/08/31 07:47:43;;;;;;;5.00;3.50;;;22.60;99.90;;;;;;4972342;28;20586;-75
2022/08/31 07:50:10;;;;;;;5.10;4.40;;;22.70;99.90;;;;;;4956022;28;20587;-76
2022/08/31 07:52:50;;;;;;;4.50;4.10;;;22.90;99.90;;;;;;4940095;28;20590;-76
2022/08/31 07:55:36;;;;;;;6.63;2.90;;;23.00;99.90;;;;;;4981628;28;20646;-76
2022/08/31 07:58:14;;;;;;;5.03;4.00;;;23.10;99.90;;;;;;4956111;28;20593;-75
2022/08/31 08:00:41;;;;;;;4.97;3.30;;;23.20;99.90;;;;;;4955705;28;20596;-76
2022/08/31 08:03:10;;;;;;;4.10;3.70;;;23.30;99.90;;;;;;4955709;28;20575;-75
2022/08/31 08:05:59;;;;;;;4.90;4.33;;;23.50;99.90;;;;;;4952940;28;20984;-76
2022/08/31 08:08:42;;;;;;;4.93;4.00;;;23.50;99.90;;;;;;4956069;28;20594;-75
2022/08/31 08:11:37;;;;;;;4.50;4.10;;;23.70;99.90;;;;;;4949526;28;20704;-76
2022/08/31 08:14:17;;;;;;;7.67;5.03;;;23.80;99.90;;;;;;4917623;29;20656;-76
2022/08/31 08:17:09;;;;;;;4.30;3.57;;;23.90;99.90;;;;;;4936837;29;20656;-76
2022/08/31 08:19:39;;;;;;;4.50;4.10;;;24.00;99.90;;;;;;4917315;29;20604;-76
2022/08/31 08:22:05;;;;;;;4.43;4.03;;;24.20;99.90;;;;;;4923682;28;20960;-76
2022/08/31 08:24:46;;;;;;;4.90;4.17;;;24.40;99.90;;;;;;4943036;28;20191;-76
2022/08/31 08:27:32;;;;;;;5.53;4.00;;;24.80;99.90;;;;;;4935016;28;20614;-76
2022/08/31 08:30:12;;;;;;;4.00;3.57;;;25.10;99.90;;;;;;4971605;28;20578;-76
2022/08/31 08:32:40;;;;;;;5.03;4.07;;;25.50;99.90;;;;;;4971613;28;20587;-76
2022/08/31 08:35:08;;;;;;;7.33;3.30;;;26.00;99.90;;;;;;4955157;28;20657;-76
2022/08/31 08:37:40;;;;;;;4.03;3.43;;;26.40;99.90;;;;;;4971531;28;20695;-76
2022/08/31 08:40:14;;;;;;;3.47;3.17;;;26.90;99.90;;;;;;4950659;28;20674;-77
2022/08/31 08:42:41;;;;;;;4.87;3.20;;;27.20;99.90;;;;;;4929836;28;21187;-76
2022/08/31 08:45:08;;;;;;;5.97;3.17;;;27.70;99.90;;;;;;4944431;28;20718;-76
2022/08/31 08:47:36;;;;;;;5.17;3.60;;;28.20;99.90;;;;;;4950223;28;20652;-75
2022/08/31 08:50:05;;;;;;;4.17;3.67;;;28.70;99.90;;;;;;4955173;28;20599;-76
2022/08/31 08:52:41;;;;;;;3.60;3.10;;;29.20;99.90;;;;;;4971488;28;20583;-75
2022/08/31 08:55:17;;;;;;;4.83;3.13;;;29.60;99.90;;;;;;4975540;28;20622;-75
2022/08/31 08:57:48;;;;;;;4.87;3.13;;;29.60;99.90;;;;;;4946178;28;21203;-74
2022/08/31 09:00:27;;;;;;;3.80;2.97;;;29.60;99.90;;;;;;4947120;28;21152;-75
2022/08/31 09:03:03;;;;;;;2.90;2.60;;;29.60;99.90;;;;;;4971297;28;20575;-74
2022/08/31 09:06:00;;;;;;;3.57;2.90;;;29.60;99.90;;;;;;4971154;28;20614;-75
2022/08/31 09:08:42;;;;;;;3.77;3.23;;;29.60;99.90;;;;;;4950932;28;21224;-75
2022/08/31 09:11:17;;;;;;;4.43;3.40;;;29.40;99.90;;;;;;4961764;28;20602;-75
2022/08/31 09:13:52;;;;;;;4.47;3.57;;;29.30;99.90;;;;;;4951311;28;20693;-75
2022/08/31 09:16:24;;;;;;;4.23;3.10;;;29.20;99.90;;;;;;4947322;28;20657;-76
2022/08/31 09:18:53;;;;;;;6.00;3.17;;;29.10;99.90;;;;;;4950930;28;20595;-76
2022/08/31 09:21:24;;;;;;;3.37;3.07;;;29.10;99.90;;;;;;4958638;28;20608;-76
2022/08/31 09:24:09;;;;;;;3.30;2.80;;;29.10;99.90;;;;;;4958668;28;20587;-76
2022/08/31 09:27:16;;;;;;;4.37;3.27;;;29.50;99.90;;;;;;4974891;28;20693;-75
2022/08/31 09:29:43;;;;;;;2.90;2.20;;;30.10;99.90;;;;;;4976112;28;20924;-75
2022/08/31 09:32:21;;;;;;;4.50;3.53;;;30.90;99.90;;;;;;4973286;28;20575;-75
2022/08/31 09:35:08;;;;;;;3.07;2.50;;;31.80;99.90;;;;;;4959644;28;20585;-75
2022/08/31 09:37:44;;;;;;;3.03;2.50;;;32.80;98.10;;;;;;4946764;28;20590;-75
2022/08/31 09:40:17;;;;;;;3.27;2.07;;;33.70;98.50;;;;;;4967200;28;20665;-75
2022/08/31 09:42:46;;;;;;;2.57;1.80;;;34.60;95.90;;;;;;4949319;29;20670;-75
2022/08/31 09:45:34;;;;;;;5.70;2.70;;;35.30;94.70;;;;;;4939238;29;21020;-75
2022/08/31 09:48:01;;;;;;;3.70;2.20;;;35.80;84.90;;;;;;4954686;28;20607;-76
2022/08/31 09:50:31;;;;;;;3.40;3.10;;;35.90;81.80;;;;;;4966961;28;20981;-75
2022/08/31 09:56:19;;;;;;;2.97;1.97;;;36.10;62.30;;;;;;4949440;28;20646;-76
2022/08/31 09:58:49;;;;;;;3.80;2.00;;;36.10;67.00;;;;;;4975585;28;20603;-75
2022/08/31 10:01:23;;;;;;;2.63;2.37;;;35.90;66.20;;;;;;4970286;28;21032;-75
2022/08/31 10:03:49;;;;;;;3.60;1.70;;;35.60;63.60;;;;;;4964090;28;20908;-75
2022/08/31 10:07:23;;;;;;;3.00;2.33;;;35.10;62.20;;;;;;4938807;29;20698;-75
2022/08/31 10:10:03;;;;;;;3.37;2.77;;;35.00;54.00;;;;;;4844115;29;20604;-75
2022/08/31 10:12:40;;;;;;;2.80;1.90;;;34.90;56.70;;;;;;4948775;28;20639;-75
2022/08/31 10:15:25;;;;;;;2.77;2.40;;;34.80;60.20;;;;;;4956048;28;20632;-75
2022/08/31 10:18:19;;;;;;;3.50;2.70;;;34.90;59.80;;;;;;4963009;28;20583;-75
2022/08/31 10:21:19;;;;;;;3.37;2.30;;;35.00;58.60;;;;;;4974752;28;20567;-75
2022/08/31 10:23:55;;;;;;;3.50;2.30;;;35.00;58.40;;;;;;4957755;28;21156;-75
2022/08/31 10:26:45;;;;;;;3.60;2.03;;;35.40;57.30;;;;;;4943316;23;20667;-77
2022/08/31 10:29:32;;;;;;;2.60;2.40;;;35.80;54.30;;;;;;4914128;29;21298;-77
2022/08/31 10:32:02;;;;;;;6.73;2.03;;;36.00;56.00;;;;;;4913856;29;20628;-77
2022/08/31 10:37:32;;;;;;;3.57;2.10;;;35.80;56.10;;;;;;4903664;29;20625;-77
2022/08/31 10:40:08;;;;;;;2.57;2.37;;;35.30;52.90;;;;;;4902660;29;20605;-78
2022/08/31 10:42:37;;;;;;;3.70;2.90;;;34.90;52.70;;;;;;4896955;29;20582;-78
2022/08/31 10:45:23;;;;;;;4.90;3.27;;;34.30;53.00;;;;;;4878033;29;20614;-78
2022/08/31 10:47:52;;;;;;;4.53;2.73;;;33.90;53.10;;;;;;4897430;29;20626;-79
2022/08/31 10:50:43;;;;;;;4.30;2.13;;;33.60;53.10;;;;;;4897868;29;20612;-80
2022/08/31 10:53:21;;;;;;;12.60;2.23;;;33.30;54.20;;;;;;4897612;29;20684;-78
2022/08/31 10:56:01;;;;;;;4.80;2.37;;;33.00;52.00;;;;;;4896821;29;20717;-79
2022/08/31 10:58:46;;;;;;;2.00;1.50;;;32.90;55.20;;;;;;4865822;29;20620;-79
2022/08/31 11:01:25;;;;;;;4.67;2.10;;;33.00;55.30;;;;;;4898154;29;20603;-79
2022/08/31 11:04:10;;;;;;;5.23;2.87;;;33.10;55.40;;;;;;4899224;29;20587;-77
2022/08/31 11:06:45;;;;;;;2.60;2.03;;;33.00;55.00;;;;;;4897347;29;20668;-77
2022/08/31 11:09:20;;;;;;;4.20;1.83;;;32.90;53.80;;;;;;4911686;29;20943;-77
2022/08/31 11:12:23;;;;;;;2.87;1.93;;;32.70;53.90;;;;;;4902276;29;20610;-78
2022/08/31 11:15:16;;;;;;;3.43;2.03;;;32.20;51.90;;;;;;4892703;29;20602;-78
2022/08/31 11:18:01;;;;;;;3.10;1.80;;;31.80;53.90;;;;;;4897404;29;20991;-78
2022/08/31 11:20:44;;;;;;;3.13;1.90;;;31.70;54.30;;;;;;4897059;29;20583;-78
2022/08/31 11:23:28;;;;;;;3.40;2.00;;;31.50;54.30;;;;;;4897254;29;20677;-78
2022/08/31 11:26:32;;;;;;;4.50;2.20;;;31.30;54.60;;;;;;4886508;29;20652;-77
2022/08/31 11:29:21;;;;;;;3.37;1.80;;;31.20;54.10;;;;;;4899112;29;21029;-77
2022/08/31 11:31:47;;;;;;;2.53;1.67;;;31.40;55.90;;;;;;4916032;29;21151;-77
2022/08/31 11:34:24;;;;;;;3.53;2.10;;;31.50;56.40;;;;;;4909717;29;20601;-78
2022/08/31 11:36:59;;;;;;;4.43;2.37;;;31.50;55.50;;;;;;4906980;29;20625;-77
2022/08/31 11:39:34;;;;;;;5.40;2.43;;;31.50;55.90;;;;;;4920152;29;20577;-78
2022/08/31 11:42:11;;;;;;;2.80;2.27;;;31.40;55.60;;;;;;4914824;29;20983;-78
2022/08/31 11:44:38;;;;;;;2.97;2.27;;;31.20;55.00;;;;;;4898622;29;20592;-78
2022/08/31 11:47:11;;;;;;;3.83;2.20;;;31.00;55.50;;;;;;4908344;29;20689;-78
2022/08/31 11:49:42;;;;;;;4.03;2.03;;;30.80;55.70;;;;;;4914480;29;20592;-78
2022/08/31 11:52:37;;;;;;;2.40;1.83;;;30.60;56.00;;;;;;4895676;29;20735;-77
2022/08/31 11:55:21;;;;;;;2.30;2.03;;;30.50;56.00;;;;;;4903767;29;20978;-78
2022/08/31 11:58:06;;;;;;;3.13;1.77;;;30.40;55.90;;;;;;4898928;29;20680;-78
2022/08/31 12:01:00;;;;;;;2.90;2.23;;;30.40;55.70;;;;;;4913975;29;20966;-78
2022/08/31 12:03:34;;;;;;;3.20;1.77;;;30.30;54.60;;;;;;4914836;29;20613;-78
2022/08/31 12:06:00;;;;;;;3.03;1.87;;;30.20;55.20;;;;;;4917917;29;21000;-78
2022/08/31 12:08:51;;;;;;;2.70;1.60;;;30.10;55.70;;;;;;4907352;29;20649;-78
2022/08/31 12:11:52;;;;;;;3.50;1.93;;;30.00;56.10;;;;;;4914073;29;20598;-78
2022/08/31 12:14:39;;;;;;;3.13;1.83;;;29.90;55.90;;;;;;4868272;29;20988;-77
2022/08/31 12:17:32;;;;;;;2.93;1.63;;;29.90;54.80;;;;;;4912731;29;20626;-77
2022/08/31 12:20:17;;;;;;;2.93;1.63;;;29.90;55.60;;;;;;4914061;29;21053;-78
2022/08/31 12:26:06;;;;;;;2.83;1.93;;;29.90;55.80;;;;;;4916602;29;20667;-78
2022/08/31 12:28:41;;;;;;;5.00;2.23;;;29.90;56.10;;;;;;4914921;29;21016;-77
2022/08/31 12:31:12;;;;;;;3.47;2.10;;;30.00;54.80;;;;;;4913680;29;20943;-78
2022/08/31 12:33:58;;;;;;;4.03;1.90;;;30.00;55.70;;;;;;4913921;29;20577;-78
2022/08/31 12:36:29;;;;;;;2.83;2.07;;;30.00;55.30;;;;;;4914931;29;20613;-78
2022/08/31 12:39:11;;;;;;;3.37;1.90;;;29.90;54.90;;;;;;4915073;29;20589;-77
2022/08/31 12:41:41;;;;;;;2.70;1.77;;;29.90;54.80;;;;;;4898131;29;20690;-78
2022/08/31 12:44:07;;;;;;;2.83;1.87;;;30.00;54.70;;;;;;4898486;29;20581;-78
2022/08/31 12:47:01;;;;;;;3.50;1.97;;;29.90;54.30;;;;;;4914999;29;21206;-78
2022/08/31 12:49:36;;;;;;;3.50;1.53;;;29.90;53.40;;;;;;4915063;29;20261;-79
2022/08/31 12:52:26;;;;;;;2.33;1.50;;;29.80;53.70;;;;;;4916600;29;21023;-79
2022/08/31 12:55:01;;;;;;;2.47;1.70;;;29.80;53.70;;;;;;4897978;29;20593;-78
2022/08/31 12:57:52;;;;;;;6.23;1.97;;;29.70;53.80;;;;;;4914944;29;20581;-78
2022/08/31 13:00:38;;;;;;;2.17;1.43;;;29.70;53.50;;;;;;4913433;29;20625;-79
2022/08/31 13:03:23;;;;;;;2.57;1.90;;;29.60;53.30;;;;;;4914664;29;20589;-78
2022/08/31 13:06:09;;;;;;;2.20;1.70;;;29.40;52.60;;;;;;4914695;29;20981;-79
2022/08/31 13:08:40;;;;;;;3.30;1.60;;;29.30;53.00;;;;;;4913789;29;20586;-78
2022/08/31 13:11:21;;;;;;;3.73;1.87;;;29.30;52.70;;;;;;4914146;29;20586;-78
2022/08/31 13:13:46;;;;;;;2.97;1.63;;;29.20;52.40;;;;;;4919979;29;20637;-78
2022/08/31 13:16:13;;;;;;;3.20;2.20;;;29.20;52.10;;;;;;4913208;29;20605;-79
2022/08/31 13:18:39;;;;;;;2.75;2.05;;;29.10;52.00;;;;;;4881914;29;21329;-79
2022/08/31 13:21:05;;;;;;;3.17;1.67;;;28.90;52.10;;;;;;4914432;29;20180;-79
2022/08/31 13:23:39;;;;;;;4.27;2.07;;;28.80;52.90;;;;;;4913324;29;21163;-78
2022/08/31 13:26:21;;;;;;;5.03;2.07;;;28.90;53.30;;;;;;4913369;29;21054;-78
2022/08/31 13:28:54;;;;;;;1.90;1.43;;;29.10;52.30;;;;;;4918226;29;20569;-78
2022/08/31 13:31:23;;;;;;;3.10;2.80;;;29.10;52.30;;;;;;4913113;29;20570;-79
2022/08/31 13:33:50;;;;;;;7.13;2.30;;;29.20;52.20;;;;;;4913445;29;20592;-77
2022/08/31 13:36:31;;;;;;;3.13;1.80;;;29.10;52.20;;;;;;4897631;29;20688;-77
2022/08/31 13:39:04;;;;;;;2.87;1.97;;;29.10;52.30;;;;;;4914515;29;20601;-77